Startpagina
METAR-TAF:

METAR-TAF

Vliegvelden :

Koeweit, Koeweit

breedte: 29-13N, lengte: 047-59E, hoogte: 55 m

Actueel weer

Dit bericht is 35 minuten geleden gemaakt, om 13:00 UTC
Wind 12 kt uit het zuidoosten
Temperatuur 24°C
Vochtigheid 65%
Druk 1013 hPa
Zicht: 7000 m
Verspreide wolken op 4000 ft
Gebroken wolken op 8000 ft

METAR: OKBK 171300Z 14012KT 7000 SCT040 BKN080 24/17 Q1013 NOSIG

Tijdstip: 16:35 (13:35 UTC)

Verwachting

Dit bericht is 2 uur en het 50 minuten geleden gemaakt, om 10:45 UTC
Verwachting geldig van 17 om 12 UTC tot 18 om 18 UTC
Wind 12 kt uit het zuidoosten met uitschieters tot 25 kt
Zicht: 6000 m
Verspreide wolken op 4000 ft
Gebroken wolken op 8000 ft
Tijdelijke
van 17 om 12 UTC tot 17 om 20 UTC
Zicht: 3000 m
Weinig wolken op 3000 ft, Cumulonimbus.
onweer, regen, Stuifstof

TAF: OKBK 171045Z 1712/1818 13012G25KT 6000 SCT040 BKN080 TEMPO 1712/1720 3000 TSRA BLDU FEW030CB

Waarnemingen en weersverwachtingen van meer dan 4000 vliegvelden (METAR en TAF).

De beschikbare stations zijn de gele en rode punten op de kaart.

Ga met uw muis naar het station om de naam te zien.

Klik dan om waarnemingen en weersverwachtingen te zien.

kaart wijzigen: klik op de groene knoppen met een zwart kruis om in te zoomen, op de groene knop met een streepje om uit te zoomen of op de groene pijlen voor aangrenzende kaarten.


METAR-TAF: